createdAt,value
2018-04-25T00:00:06.220Z,94.74
2018-04-25T00:01:06.213Z,94.65
2018-04-25T00:02:06.206Z,94.7
2018-04-25T00:03:06.203Z,94.55
2018-04-25T00:04:06.203Z,94.98
2018-04-25T00:05:05.941Z,94.7
2018-04-25T00:06:06.183Z,94.89
2018-04-25T00:07:05.931Z,94.98
2018-04-25T00:08:06.174Z,94.74
2018-04-25T00:09:05.913Z,95.17
2018-04-25T00:10:06.160Z,95.17
2018-04-25T00:11:06.154Z,94.79
2018-04-25T00:12:06.147Z,94.6
2018-04-25T00:13:06.143Z,95.17
2018-04-25T00:14:06.138Z,95.07
2018-04-25T00:15:05.879Z,95.07
2018-04-25T00:16:05.994Z,95.17
2018-04-25T00:17:06.119Z,95.17
2018-04-25T00:18:06.113Z,94.79
2018-04-25T00:19:06.107Z,94.98
2018-04-25T00:20:06.103Z,94.79
2018-04-25T00:21:06.096Z,95.07
2018-04-25T00:22:06.094Z,94.89
2018-04-25T00:23:06.088Z,95.51
2018-04-25T00:24:06.081Z,95.65
2018-04-25T00:25:06.073Z,95.56
2018-04-25T00:26:06.066Z,95.27
2018-04-25T00:27:06.059Z,95.7
2018-04-25T00:28:06.055Z,95.65
2018-04-25T00:29:05.795Z,94.41
2018-04-25T00:30:05.789Z,95.03
2018-04-25T00:31:06.036Z,94.89
2018-04-25T00:32:05.776Z,94.98
2018-04-25T00:33:06.027Z,95.07
2018-04-25T00:34:06.018Z,94.7
2018-04-25T00:35:05.759Z,94.89
2018-04-25T00:36:05.753Z,95.07
2018-04-25T00:37:06.007Z,94.98
2018-04-25T00:38:05.998Z,94.36
2018-04-25T00:39:05.995Z,94.89
2018-04-25T00:40:05.984Z,95.65
2018-04-25T00:41:05.723Z,95.56
2018-04-25T00:42:05.970Z,95.27
2018-04-25T00:43:05.970Z,95.27
2018-04-25T00:44:05.960Z,95.51
2018-04-25T00:45:05.958Z,94.93
2018-04-25T00:46:05.953Z,95.22
2018-04-25T00:47:05.687Z,95.61
2018-04-25T00:48:05.686Z,95.03
2018-04-25T00:49:05.676Z,95.12
2018-04-25T00:50:05.927Z,94.93
2018-04-25T00:51:05.925Z,95.03
2018-04-25T00:52:05.657Z,94.79
2018-04-25T00:53:05.904Z,95.12
2018-04-25T00:54:05.647Z,95.03
2018-04-25T00:55:05.895Z,95.12
2018-04-25T00:56:05.886Z,94.65
2018-04-25T00:57:05.881Z,94.93
2018-04-25T00:58:05.875Z,94.65
2018-04-25T00:59:05.870Z,95.41
2018-04-25T01:00:05.865Z,95.51
2018-04-25T01:01:05.604Z,95.12
2018-04-25T01:02:05.850Z,95.22
2018-04-25T01:03:05.845Z,95.32
2018-04-25T01:04:05.586Z,95.32
2018-04-25T01:05:05.833Z,95.32
2018-04-25T01:06:05.835Z,95.22
2018-04-25T01:07:05.572Z,95.7
2018-04-25T01:08:05.562Z,95.51
2018-04-25T01:09:05.809Z,95.51
2018-04-25T01:10:05.551Z,96.37
2018-04-25T01:11:05.801Z,96.27
2018-04-25T01:12:05.947Z,96.08
2018-04-25T01:13:05.786Z,95.98
2018-04-25T01:14:05.525Z,96.08
2018-04-25T01:15:05.781Z,96.17
2018-04-25T01:16:05.773Z,96.08
2018-04-25T01:17:05.768Z,95.12
2018-04-25T01:18:05.768Z,95.22
2018-04-25T01:19:05.754Z,95.51
2018-04-25T01:20:05.743Z,95.51
2018-04-25T01:21:05.487Z,95.51
2018-04-25T01:22:05.731Z,95.41
2018-04-25T01:23:05.486Z,95.51
2018-04-25T01:24:05.718Z,95.51
2018-04-25T01:25:05.459Z,95.61
2018-04-25T01:26:05.706Z,95.32
2018-04-25T01:27:05.701Z,95.51
2018-04-25T01:28:05.695Z,95.51
2018-04-25T01:29:05.688Z,96.17
2018-04-25T01:30:05.430Z,95.12
2018-04-25T01:31:05.676Z,95.51
2018-04-25T01:32:05.422Z,95.32
2018-04-25T01:33:05.665Z,95.22
2018-04-25T01:34:05.660Z,95.51
2018-04-25T01:35:05.653Z,95.51
2018-04-25T01:36:05.647Z,95.51
2018-04-25T01:37:05.387Z,95.32
2018-04-25T01:38:05.635Z,95.32
2018-04-25T01:39:05.632Z,95.32
2018-04-25T01:40:05.369Z,95.41
2018-04-25T01:41:05.364Z,95.32
2018-04-25T01:42:05.612Z,95.41
2018-04-25T01:43:05.611Z,95.32
2018-04-25T01:44:05.345Z,95.61
2018-04-25T01:45:05.592Z,95.51
2018-04-25T01:46:05.333Z,95.41
2018-04-25T01:47:05.328Z,95.41
2018-04-25T01:48:05.574Z,95.32
2018-04-25T01:49:05.570Z,95.32
2018-04-25T01:50:05.310Z,95.51
2018-04-25T01:51:05.567Z,95.75
2018-04-25T01:52:05.554Z,95.56
2018-04-25T01:53:05.542Z,95.75
2018-04-25T01:54:05.539Z,95.27
2018-04-25T01:55:05.280Z,95.41
2018-04-25T01:56:05.529Z,95.61
2018-04-25T01:57:05.520Z,95.51
2018-04-25T01:58:05.261Z,95.56
2018-04-25T01:59:05.263Z,95.46
2018-04-25T02:00:05.504Z,96.08
2018-04-25T02:01:05.497Z,96.03
2018-04-25T02:02:05.238Z,96.32
2018-04-25T02:03:05.484Z,96.13
2018-04-25T02:04:05.480Z,96.13
2018-04-25T02:05:05.473Z,96.03
2018-04-25T02:06:05.466Z,96.46
2018-04-25T02:07:05.466Z,96.27
2018-04-25T02:08:05.269Z,96.46
2018-04-25T02:09:05.196Z,96.08
2018-04-25T02:10:05.190Z,96.66
2018-04-25T02:11:05.185Z,96.37
2018-04-25T02:12:05.432Z,96.56
2018-04-25T02:13:05.425Z,96.84
2018-04-25T02:14:05.418Z,96.27
2018-04-25T02:15:05.420Z,96.37
2018-04-25T02:16:05.407Z,96.37
2018-04-25T02:17:05.399Z,96.75
2018-04-25T02:18:05.397Z,96.66
2018-04-25T02:19:05.389Z,96.46
2018-04-25T02:20:05.133Z,96.56
2018-04-25T02:21:05.380Z,97.13
2018-04-25T02:22:05.379Z,96.75
2018-04-25T02:23:05.365Z,96.84
2018-04-25T02:24:05.623Z,96.66
2018-04-25T02:25:05.393Z,96.75
2018-04-25T02:26:05.370Z,96.75
2018-04-25T02:27:05.341Z,97.32
2018-04-25T02:28:05.334Z,96.42
2018-04-25T02:29:05.332Z,97.08
2018-04-25T02:30:05.086Z,97.42
2018-04-25T02:31:05.063Z,97.37
2018-04-25T02:32:05.312Z,97.18
2018-04-25T02:33:05.050Z,97.23
2018-04-25T02:34:05.301Z,97.03
2018-04-25T02:35:05.294Z,96.98
2018-04-25T02:36:05.294Z,97.23
2018-04-25T02:37:05.277Z,97.27
2018-04-25T02:38:05.020Z,97.03
2018-04-25T02:39:05.266Z,97.23
2018-04-25T02:40:05.006Z,97.13
2018-04-25T02:41:04.999Z,97.08
2018-04-25T02:42:05.250Z,97.13
2018-04-25T02:43:05.243Z,97.08
2018-04-25T02:44:05.238Z,97.13
2018-04-25T02:45:04.978Z,96.89
2018-04-25T02:46:05.232Z,97.13
2018-04-25T02:47:04.964Z,97.27
2018-04-25T02:48:05.211Z,97.23
2018-04-25T02:49:04.953Z,97.18
2018-04-25T02:50:04.946Z,97.23
2018-04-25T02:51:04.944Z,97.23
2018-04-25T02:52:05.195Z,97.27
2018-04-25T02:53:05.182Z,97.42
2018-04-25T02:54:04.919Z,97.37
2018-04-25T02:55:05.427Z,97.27
2018-04-25T02:56:04.923Z,97.37
2018-04-25T02:57:05.159Z,96.32
2018-04-25T02:58:05.149Z,97.37
2018-04-25T02:59:04.893Z,96.51
2018-04-25T03:00:05.141Z,97.37
2018-04-25T03:01:05.129Z,96.51
2018-04-25T03:02:05.123Z,96.7
2018-04-25T03:03:04.864Z,96.56
2018-04-25T03:04:05.120Z,96.42
2018-04-25T03:05:05.107Z,96.61
2018-04-25T03:06:04.849Z,96.66
2018-04-25T03:07:05.092Z,96.7
2018-04-25T03:08:04.834Z,96.8
2018-04-25T03:09:05.084Z,96.61
2018-04-25T03:10:05.075Z,96.7
2018-04-25T03:11:05.067Z,96.7
2018-04-25T03:12:05.062Z,96.61
2018-04-25T03:13:05.055Z,96.7
2018-04-25T03:14:05.049Z,96.89
2018-04-25T03:15:05.051Z,96.7
2018-04-25T03:16:04.783Z,96.8
2018-04-25T03:17:04.777Z,96.7
2018-04-25T03:18:04.769Z,96.7
2018-04-25T03:19:05.024Z,96.8
2018-04-25T03:20:05.010Z,96.8
2018-04-25T03:21:05.011Z,96.7
2018-04-25T03:22:04.997Z,97.08
2018-04-25T03:23:05.001Z,96.7
2018-04-25T03:24:04.985Z,96.98
2018-04-25T03:25:04.729Z,96.7
2018-04-25T03:26:05.222Z,96.89
2018-04-25T03:27:04.969Z,96.66
2018-04-25T03:28:04.962Z,96.7
2018-04-25T03:29:04.952Z,96.42
2018-04-25T03:30:04.694Z,96.51
2018-04-25T03:31:04.690Z,96.13
2018-04-25T03:32:04.681Z,96.32
2018-04-25T03:33:04.929Z,96.7
2018-04-25T03:34:04.669Z,96.89
2018-04-25T03:35:04.661Z,95.94
2018-04-25T03:36:04.909Z,96.32
2018-04-25T03:37:04.903Z,96.32
2018-04-25T03:38:04.902Z,96.13
2018-04-25T03:39:04.965Z,96.32
2018-04-25T03:40:04.629Z,96.37
2018-04-25T03:41:04.929Z,96.08
2018-04-25T03:42:04.872Z,95.89
2018-04-25T03:43:04.611Z,95.79
2018-04-25T03:44:04.856Z,96.08
2018-04-25T03:45:04.857Z,95.89
2018-04-25T03:46:04.845Z,96.17
2018-04-25T03:47:04.838Z,95.98
2018-04-25T03:48:04.837Z,96.08
2018-04-25T03:49:04.573Z,96.27
2018-04-25T03:50:04.566Z,96.37
2018-04-25T03:51:04.559Z,96.17
2018-04-25T03:52:04.809Z,95.79
2018-04-25T03:53:04.803Z,95.98
2018-04-25T03:54:04.809Z,95.7
2018-04-25T03:55:04.534Z,96.08
2018-04-25T03:56:04.780Z,96.17
2018-04-25T03:57:04.771Z,96.08
2018-04-25T03:58:04.516Z,96.27
2018-04-25T03:59:04.568Z,95.41
2018-04-25T04:00:04.503Z,95.41
2018-04-25T04:01:04.497Z,95.51
2018-04-25T04:02:04.747Z,95.51
2018-04-25T04:03:04.737Z,95.41
2018-04-25T04:04:04.479Z,95.51
2018-04-25T04:05:04.726Z,95.22
2018-04-25T04:06:04.734Z,95.51
2018-04-25T04:07:04.460Z,95.12
2018-04-25T04:08:04.452Z,95.32
2018-04-25T04:09:04.447Z,95.22
2018-04-25T04:10:04.441Z,95.56
2018-04-25T04:11:04.688Z,95.07
2018-04-25T04:12:04.682Z,94.98
2018-04-25T04:13:04.880Z,95.07
2018-04-25T04:14:04.670Z,94.89
2018-04-25T04:15:04.664Z,95.12
2018-04-25T04:16:04.405Z,95.17
2018-04-25T04:17:04.654Z,95.07
2018-04-25T04:18:04.644Z,95.17
2018-04-25T04:19:04.386Z,94.7
2018-04-25T04:20:04.380Z,95.07
2018-04-25T04:21:04.626Z,95.07
2018-04-25T04:22:04.367Z,94.89
2018-04-25T04:23:04.622Z,95.07
2018-04-25T04:24:04.607Z,95.27
2018-04-25T04:25:04.350Z,94.6
2018-04-25T04:26:04.346Z,94.6
2018-04-25T04:27:04.591Z,94.6
2018-04-25T04:28:04.845Z,94.12
2018-04-25T04:29:04.326Z,94.12
2018-04-25T04:30:04.574Z,94.22
2018-04-25T04:31:04.324Z,94.12
2018-04-25T04:32:04.307Z,94.12
2018-04-25T04:33:04.555Z,93.79
2018-04-25T04:34:04.559Z,93.79
2018-04-25T04:35:04.546Z,93.74
2018-04-25T04:36:04.284Z,93.79
2018-04-25T04:37:04.534Z,93.4
2018-04-25T04:38:04.528Z,93.4
2018-04-25T04:39:04.267Z,92.54
2018-04-25T04:40:04.262Z,92.93
2018-04-25T04:41:04.255Z,92.93
2018-04-25T04:42:04.250Z,93.02
2018-04-25T04:43:04.245Z,92.93
2018-04-25T04:44:04.239Z,93.12
2018-04-25T04:45:04.491Z,92.83
2018-04-25T04:46:04.227Z,92.25
2018-04-25T04:47:04.479Z,92.45
2018-04-25T04:48:04.218Z,92.54
2018-04-25T04:49:04.211Z,92.25
2018-04-25T04:50:04.205Z,92.45
2018-04-25T04:51:04.200Z,91.68
2018-04-25T04:52:04.449Z,92.16
2018-04-25T04:53:04.196Z,92.07
2018-04-25T04:54:04.529Z,91.88
2018-04-25T04:55:04.176Z,92.25
2018-04-25T04:56:04.506Z,91.68
2018-04-25T04:57:04.418Z,91.88
2018-04-25T04:58:04.161Z,91.3
2018-04-25T04:59:04.158Z,91.25
2018-04-25T05:00:04.149Z,91.44
2018-04-25T05:01:04.402Z,90.58
2018-04-25T05:02:04.395Z,90.77
2018-04-25T05:03:04.390Z,90.77
2018-04-25T05:04:04.380Z,90.2
2018-04-25T05:05:04.125Z,90.96
2018-04-25T05:06:04.372Z,90.2
2018-04-25T05:07:04.113Z,90.1
2018-04-25T05:08:04.105Z,89.91
2018-04-25T05:09:04.355Z,89.81
2018-04-25T05:10:04.352Z,89.53
2018-04-25T05:11:04.091Z,89.15
2018-04-25T05:12:04.338Z,89.24
2018-04-25T05:13:04.449Z,88.86
2018-04-25T05:14:04.394Z,89.05
2018-04-25T05:15:04.332Z,89
2018-04-25T05:16:04.064Z,88.43
2018-04-25T05:17:04.059Z,88.62
2018-04-25T05:18:04.055Z,88.52
2018-04-25T05:19:04.055Z,88.43
2018-04-25T05:20:04.301Z,88.04
2018-04-25T05:21:04.042Z,87.95
2018-04-25T05:22:04.044Z,87.47
2018-04-25T05:23:04.031Z,87.03
2018-04-25T05:24:04.293Z,87.37
2018-04-25T05:25:04.090Z,86.99
2018-04-25T05:26:04.015Z,86.84
2018-04-25T05:27:04.010Z,86.84
2018-04-25T05:28:04.268Z,86.74
2018-04-25T05:29:04.001Z,87.03
2018-04-25T05:30:03.996Z,86.46
2018-04-25T05:31:04.248Z,86.36
2018-04-25T05:32:04.030Z,86.36
2018-04-25T05:33:03.983Z,86.36
2018-04-25T05:34:04.239Z,85.25
2018-04-25T05:35:04.026Z,85.54
2018-04-25T05:36:04.222Z,84.97
2018-04-25T05:37:04.221Z,85.16
2018-04-25T05:38:03.960Z,85.06
2018-04-25T05:39:03.956Z,84.78
2018-04-25T05:40:03.951Z,84.68
2018-04-25T05:41:04.200Z,84.3
2018-04-25T05:42:04.195Z,83.92
2018-04-25T05:43:03.939Z,84.2
2018-04-25T05:44:03.938Z,84.2
2018-04-25T05:45:03.930Z,84.2
2018-04-25T05:46:04.385Z,84.15
2018-04-25T05:47:03.930Z,84.72
2018-04-25T05:48:03.917Z,83.76
2018-04-25T05:49:04.175Z,83.58
2018-04-25T05:50:04.164Z,83.67
2018-04-25T05:51:04.161Z,83.58
2018-04-25T05:52:04.157Z,83.67
2018-04-25T05:53:03.897Z,83
2018-04-25T05:54:04.148Z,82.65
2018-04-25T05:55:03.894Z,81.89
2018-04-25T05:56:04.158Z,81.98
2018-04-25T05:57:04.134Z,81.6
2018-04-25T05:58:03.881Z,81.26
2018-04-25T05:59:03.875Z,81.35
2018-04-25T06:00:04.133Z,81.6
2018-04-25T06:01:03.874Z,81.64
2018-04-25T06:02:03.882Z,81.45
2018-04-25T06:03:04.148Z,81.26
2018-04-25T06:04:03.858Z,81.16
2018-04-25T06:05:04.111Z,81.45
2018-04-25T06:06:04.136Z,81.07
2018-04-25T06:07:03.859Z,80.87
2018-04-25T06:08:03.853Z,80.87
2018-04-25T06:09:03.851Z,80.87
2018-04-25T06:10:04.143Z,80.87
2018-04-25T06:11:03.834Z,81.35
2018-04-25T06:12:04.085Z,81.26
2018-04-25T06:13:04.099Z,81.26
2018-04-25T06:14:03.824Z,81.07
2018-04-25T06:15:04.079Z,80.58
2018-04-25T06:16:03.826Z,80.58
2018-04-25T06:17:04.070Z,80.78
2018-04-25T06:18:04.068Z,80.49
2018-04-25T06:19:03.886Z,80.58
2018-04-25T06:20:03.809Z,80.01
2018-04-25T06:21:04.073Z,80.4
2018-04-25T06:22:04.053Z,80.2
2018-04-25T06:23:04.050Z,79.91
2018-04-25T06:24:04.048Z,80.34
2018-04-25T06:25:04.050Z,80.05
2018-04-25T06:26:04.043Z,79.76
2018-04-25T06:27:04.037Z,79.67
2018-04-25T06:28:04.048Z,79.09
2018-04-25T06:29:04.032Z,79.67
2018-04-25T06:30:04.051Z,80.24
2018-04-25T06:31:04.031Z,80.43
2018-04-25T06:32:04.027Z,80.09
2018-04-25T06:33:04.020Z,79.22
2018-04-25T06:34:04.017Z,79.61
2018-04-25T06:35:04.029Z,79.61
2018-04-25T06:36:03.757Z,79.22
2018-04-25T06:37:03.758Z,79.13
2018-04-25T06:38:04.007Z,78.65
2018-04-25T06:39:04.007Z,78.08
2018-04-25T06:40:04.018Z,78.45
2018-04-25T06:41:03.998Z,78.45
2018-04-25T06:42:03.995Z,77.88
2018-04-25T06:43:04.038Z,77.4
2018-04-25T06:44:03.999Z,77.98
2018-04-25T06:45:04.224Z,77.78
2018-04-25T06:46:03.736Z,77.69
2018-04-25T06:47:04.055Z,77.21
2018-04-25T06:48:03.726Z,77.69
2018-04-25T06:49:03.980Z,77.59
2018-04-25T06:50:03.975Z,77.88
2018-04-25T06:51:03.970Z,77.5
2018-04-25T06:52:03.794Z,77.98
2018-04-25T06:53:03.968Z,78.36
2018-04-25T06:54:03.715Z,77.21
2018-04-25T06:55:03.704Z,77.69
2018-04-25T06:56:03.705Z,77.5
2018-04-25T06:57:03.706Z,77.69
2018-04-25T06:58:03.954Z,77.59
2018-04-25T06:59:03.947Z,76.64
2018-04-25T07:00:03.691Z,76.73
2018-04-25T07:01:03.697Z,76.64
2018-04-25T07:02:03.956Z,76.44
2018-04-25T07:03:03.689Z,76.64
2018-04-25T07:04:03.980Z,76.73
2018-04-25T07:05:03.690Z,77.11
2018-04-25T07:06:03.679Z,77.11
2018-04-25T07:07:03.674Z,77.11
2018-04-25T07:08:04.058Z,77.11
2018-04-25T07:09:03.919Z,76.44
2018-04-25T07:10:03.663Z,76.73
2018-04-25T07:11:03.661Z,76.34
2018-04-25T07:12:03.911Z,76.44
2018-04-25T07:13:03.911Z,76.73
2018-04-25T07:14:04.019Z,76.54
2018-04-25T07:15:03.651Z,76.64
2018-04-25T07:16:03.647Z,76.25
2018-04-25T07:17:03.906Z,77.01
2018-04-25T07:18:03.893Z,76.82
2018-04-25T07:19:03.643Z,76.64
2018-04-25T07:20:03.889Z,76.06
2018-04-25T07:21:03.889Z,76.06
2018-04-25T07:22:03.883Z,76.44
2018-04-25T07:23:03.881Z,76.34
2018-04-25T07:24:03.624Z,76.73
2018-04-25T07:25:03.620Z,76.15
2018-04-25T07:26:03.892Z,77.01
2018-04-25T07:27:03.868Z,77.01
2018-04-25T07:28:03.866Z,77.01
2018-04-25T07:29:03.865Z,77.5
2018-04-25T07:30:03.606Z,77.75
2018-04-25T07:31:03.618Z,77.4
2018-04-25T07:32:03.854Z,77.5
2018-04-25T07:33:03.851Z,77.56
2018-04-25T07:34:03.865Z,77.88
2018-04-25T07:35:03.859Z,78.17
2018-04-25T07:36:03.596Z,77.98
2018-04-25T07:37:03.864Z,77.65
2018-04-25T07:38:03.853Z,77.94
2018-04-25T07:39:03.830Z,77.84
2018-04-25T07:40:03.836Z,78.42
2018-04-25T07:41:03.843Z,78.52
2018-04-25T07:42:03.569Z,78.52
2018-04-25T07:43:03.855Z,78.99
2018-04-25T07:44:03.829Z,80.15
2018-04-25T07:45:03.568Z,80.73
2018-04-25T07:46:03.556Z,80.63
2018-04-25T07:47:03.808Z,80.53
2018-04-25T07:48:03.880Z,80.87
2018-04-25T07:49:03.550Z,81.35
2018-04-25T07:50:03.554Z,80.87
2018-04-25T07:51:03.794Z,80.97
2018-04-25T07:52:03.799Z,80.68
2018-04-25T07:53:03.802Z,80.87
2018-04-25T07:54:03.822Z,80.97
2018-04-25T07:55:03.819Z,80.49
2018-04-25T07:56:03.777Z,80.87
2018-04-25T07:57:03.782Z,80.49
2018-04-25T07:58:03.810Z,81.12
2018-04-25T07:59:03.516Z,80.87
2018-04-25T08:00:03.512Z,80.93
2018-04-25T08:01:03.760Z,81.41
2018-04-25T08:02:03.504Z,81.64
2018-04-25T08:03:03.754Z,81.6
2018-04-25T08:04:03.762Z,81.98
2018-04-25T08:05:03.768Z,81.98
2018-04-25T08:06:03.947Z,82.65
2018-04-25T08:07:03.488Z,82.46
2018-04-25T08:08:03.735Z,82.85
2018-04-25T08:09:03.773Z,82.56
2018-04-25T08:10:03.725Z,82.37
2018-04-25T08:11:03.723Z,82.37
2018-04-25T08:12:03.718Z,82.75
2018-04-25T08:13:03.724Z,82.46
2018-04-25T08:14:03.714Z,82.56
2018-04-25T08:15:03.495Z,82.46
2018-04-25T08:16:03.723Z,82.65
2018-04-25T08:17:03.705Z,83.29
2018-04-25T08:18:03.847Z,83.04
2018-04-25T08:19:03.439Z,82.75
2018-04-25T08:20:03.693Z,82.56
2018-04-25T08:21:03.431Z,82.37
2018-04-25T08:22:03.695Z,83.04
2018-04-25T08:23:03.677Z,82.46
2018-04-25T08:24:03.418Z,82.27
2018-04-25T08:25:03.432Z,82.27
2018-04-25T08:26:03.663Z,82.08
2018-04-25T08:27:03.666Z,82.46
2018-04-25T08:28:03.659Z,81.89
2018-04-25T08:29:03.656Z,81.84
2018-04-25T08:30:03.650Z,81.74
2018-04-25T08:31:03.643Z,81.07
2018-04-25T08:32:03.642Z,80.97
2018-04-25T08:33:03.635Z,80.34
2018-04-25T08:34:04.037Z,79.86
2018-04-25T08:35:03.379Z,79.42
2018-04-25T08:36:03.636Z,78.84
2018-04-25T08:37:03.370Z,78.17
2018-04-25T08:38:03.620Z,77.53
2018-04-25T08:39:03.625Z,76.77
2018-04-25T08:40:03.368Z,76.14
2018-04-25T08:41:03.615Z,76.42
2018-04-25T08:42:03.612Z,75.94
2018-04-25T08:43:03.353Z,75.17
2018-04-25T08:44:03.613Z,75.27
2018-04-25T08:45:03.854Z,75.27
2018-04-25T08:46:03.616Z,75.07
2018-04-25T08:47:03.604Z,73.83
2018-04-25T08:48:03.828Z,74.73
2018-04-25T08:49:03.339Z,74.6
2018-04-25T08:50:03.603Z,74.63
2018-04-25T08:51:03.335Z,73.86
2018-04-25T08:52:03.590Z,73.96
2018-04-25T08:53:03.599Z,73.86
2018-04-25T08:54:03.345Z,73.38
2018-04-25T08:55:03.582Z,73.28
2018-04-25T08:56:03.325Z,73.19
2018-04-25T08:57:03.579Z,73.67
2018-04-25T08:58:03.578Z,73.38
2018-04-25T08:59:03.569Z,73.77
2018-04-25T09:00:03.566Z,73.38
2018-04-25T09:01:03.573Z,73.19
2018-04-25T09:02:03.612Z,73.09
2018-04-25T09:03:03.572Z,72.71
2018-04-25T09:04:03.305Z,72.8
2018-04-25T09:05:03.566Z,72.9
2018-04-25T09:06:03.565Z,73.57
2018-04-25T09:07:03.560Z,73.47
2018-04-25T09:08:03.296Z,73.09
2018-04-25T09:09:03.546Z,73
2018-04-25T09:10:03.293Z,73.13
2018-04-25T09:11:03.544Z,72.45
2018-04-25T09:12:03.300Z,72.07
2018-04-25T09:13:03.551Z,71.59
2018-04-25T09:14:03.560Z,71.14
2018-04-25T09:15:03.548Z,70.28
2018-04-25T09:16:03.534Z,70.12
2018-04-25T09:17:03.534Z,70.02
2018-04-25T09:18:03.540Z,69.57
2018-04-25T09:19:03.535Z,68.42
2018-04-25T09:20:03.537Z,67.36
2018-04-25T09:21:03.528Z,66.91
2018-04-25T09:22:03.525Z,67
2018-04-25T09:23:03.525Z,66.91
2018-04-25T09:24:03.534Z,66.27
2018-04-25T09:25:03.272Z,66.08
2018-04-25T09:26:03.524Z,65.78
2018-04-25T09:27:03.288Z,65.69
2018-04-25T09:28:03.538Z,65.88
2018-04-25T09:29:03.538Z,64.92
2018-04-25T09:30:03.541Z,65.01
2018-04-25T09:31:03.536Z,65.14
2018-04-25T09:32:03.540Z,64.66
2018-04-25T09:33:03.538Z,64.5
2018-04-25T09:34:03.558Z,63.85
2018-04-25T09:35:03.297Z,61.44
2018-04-25T09:36:03.277Z,61.57
2018-04-25T09:37:03.535Z,60.6
2018-04-25T09:38:03.555Z,59.83
2018-04-25T09:39:03.292Z,59.66
2018-04-25T09:40:03.301Z,58.98
2018-04-25T09:41:03.550Z,58.89
2018-04-25T09:42:03.542Z,59.28
2018-04-25T09:43:03.290Z,59.18
2018-04-25T09:44:03.297Z,58.98
2018-04-25T09:45:03.562Z,58.6
2018-04-25T09:46:03.867Z,58.12
2018-04-25T09:47:03.568Z,58.4
2018-04-25T09:48:03.317Z,58.89
2018-04-25T09:49:03.316Z,59.34
2018-04-25T09:50:03.321Z,60.11
2018-04-25T09:51:03.591Z,59.83
2018-04-25T09:52:03.586Z,60.11
2018-04-25T09:53:03.585Z,60.14
2018-04-25T09:54:03.350Z,58.98
2018-04-25T09:55:03.326Z,57.73
2018-04-25T09:56:03.579Z,57.44
2018-04-25T09:57:03.360Z,57.44
2018-04-25T09:58:03.710Z,56.95
2018-04-25T09:59:03.581Z,56.57
2018-04-25T10:00:03.331Z,56.57
2018-04-25T10:01:03.588Z,56.86
2018-04-25T10:02:03.588Z,56.57
2018-04-25T10:03:03.594Z,55.05
2018-04-25T10:04:03.652Z,54.85
2018-04-25T10:05:03.609Z,55.43
2018-04-25T10:06:03.603Z,55.73
2018-04-25T10:07:03.626Z,55.53
2018-04-25T10:08:03.607Z,55.43
2018-04-25T10:09:03.357Z,55.34
2018-04-25T10:10:03.610Z,55.73
2018-04-25T10:11:03.359Z,53.99
2018-04-25T10:12:03.365Z,53.59
2018-04-25T10:13:03.365Z,53.5
2018-04-25T10:14:03.624Z,53.99
2018-04-25T10:15:03.381Z,53.02
2018-04-25T10:16:03.635Z,53.69
2018-04-25T10:17:03.775Z,53.5
2018-04-25T10:18:03.648Z,53.04
2018-04-25T10:19:03.707Z,52.24
2018-04-25T10:20:03.640Z,53.23
2018-04-25T10:21:03.388Z,53.21
2018-04-25T10:22:03.397Z,51.37
2018-04-25T10:23:03.661Z,51.47
2018-04-25T10:24:03.727Z,51.47
2018-04-25T10:25:03.651Z,51.56
2018-04-25T10:26:03.652Z,51.28
2018-04-25T10:27:03.403Z,51.37
2018-04-25T10:28:03.659Z,51.47
2018-04-25T10:29:03.664Z,51.56
2018-04-25T10:30:03.664Z,51.56
2018-04-25T10:31:03.681Z,51.56
2018-04-25T10:32:03.800Z,51.95
2018-04-25T10:33:03.670Z,51.95
2018-04-25T10:34:03.676Z,52.05
2018-04-25T10:35:03.683Z,51.66
2018-04-25T10:36:03.426Z,51.5
2018-04-25T10:37:03.433Z,50.92
2018-04-25T10:38:03.700Z,50.62
2018-04-25T10:39:03.433Z,50.33
2018-04-25T10:40:03.697Z,50.65
2018-04-25T10:41:03.442Z,50.16
2018-04-25T10:42:03.441Z,50.16
2018-04-25T10:43:03.698Z,50.55
2018-04-25T10:44:03.699Z,50.16
2018-04-25T10:45:03.705Z,49.58
2018-04-25T10:46:03.452Z,49.77
2018-04-25T10:47:03.711Z,49.77
2018-04-25T10:48:03.710Z,49.9
2018-04-25T10:49:03.714Z,48.44
2018-04-25T10:50:03.473Z,48.54
2018-04-25T10:51:03.720Z,48.54
2018-04-25T10:52:03.723Z,48.25
2018-04-25T10:53:03.725Z,48.42
2018-04-25T10:54:03.475Z,48.9
2018-04-25T10:55:03.736Z,48.9
2018-04-25T10:56:03.733Z,48.52
2018-04-25T10:57:03.501Z,48.81
2018-04-25T10:58:03.740Z,49.68
2018-04-25T10:59:03.752Z,48.52
2018-04-25T11:00:03.747Z,48.61
2018-04-25T11:01:03.751Z,48.9
2018-04-25T11:02:03.753Z,49.39
2018-04-25T11:03:03.784Z,48.9
2018-04-25T11:04:03.507Z,49.68
2018-04-25T11:05:03.767Z,49.87
2018-04-25T11:06:03.514Z,49.58
2018-04-25T11:07:03.765Z,49.19
2018-04-25T11:08:03.521Z,48.69
2018-04-25T11:09:03.797Z,48.39
2018-04-25T11:10:03.528Z,48.49
2018-04-25T11:11:03.778Z,48.59
2018-04-25T11:12:03.782Z,48.2
2018-04-25T11:13:03.789Z,48.3
2018-04-25T11:14:03.792Z,48.39
2018-04-25T11:15:03.543Z,48.37
2018-04-25T11:16:03.791Z,48.49
2018-04-25T11:17:03.793Z,48.95
2018-04-25T11:18:03.798Z,48.95
2018-04-25T11:19:03.545Z,49.63
2018-04-25T11:20:03.803Z,49.32
2018-04-25T11:21:03.802Z,49.9
2018-04-25T11:22:03.805Z,49.9
2018-04-25T11:23:03.815Z,50.09
2018-04-25T11:24:03.809Z,49.99
2018-04-25T11:25:03.837Z,50.09
2018-04-25T11:26:03.559Z,49.73
2018-04-25T11:27:03.583Z,49.63
2018-04-25T11:28:03.818Z,49.54
2018-04-25T11:29:03.825Z,48.83
2018-04-25T11:30:03.822Z,49.82
2018-04-25T11:31:03.823Z,49.51
2018-04-25T11:32:04.050Z,50.09
2018-04-25T11:33:03.578Z,50.45
2018-04-25T11:34:03.827Z,50.45
2018-04-25T11:35:03.580Z,50.91
2018-04-25T11:36:03.832Z,52.45
2018-04-25T11:37:03.835Z,56.9
2018-04-25T11:38:03.579Z,61.31
2018-04-25T11:39:03.845Z,64.18
2018-04-25T11:40:03.584Z,66.36
2018-04-25T11:41:03.841Z,68.77
2018-04-25T11:42:03.838Z,70.38
2018-04-25T11:43:03.581Z,71.41
2018-04-25T11:44:03.835Z,73.43
2018-04-25T11:45:03.836Z,74.93
2018-04-25T11:46:03.583Z,75.23
2018-04-25T11:47:03.858Z,75.9
2018-04-25T11:48:03.875Z,75.71
2018-04-25T11:49:03.833Z,76.25
2018-04-25T11:50:03.578Z,75.38
2018-04-25T11:51:03.850Z,76.15
2018-04-25T11:52:03.578Z,77.31
2018-04-25T11:53:03.837Z,81.93
2018-04-25T11:54:03.834Z,85.35
2018-04-25T11:55:03.573Z,86.51
2018-04-25T11:56:03.832Z,86.22
2018-04-25T11:57:03.829Z,86.6
2018-04-25T11:58:03.582Z,86.75
2018-04-25T11:59:03.826Z,86.27
2018-04-25T12:00:03.848Z,87.38
2018-04-25T12:01:03.595Z,87.96
2018-04-25T12:02:03.821Z,88.24
2018-04-25T12:03:03.839Z,88.82
2018-04-25T12:04:03.825Z,87.82
2018-04-25T12:05:03.966Z,88.1
2018-04-25T12:06:03.575Z,89.45
2018-04-25T12:07:03.809Z,89.07
2018-04-25T12:08:03.554Z,88.73
2018-04-25T12:09:03.826Z,88.73
2018-04-25T12:10:03.807Z,87.87
2018-04-25T12:11:03.816Z,88.16
2018-04-25T12:12:03.800Z,89.12
2018-04-25T12:13:03.900Z,88.64
2018-04-25T12:14:03.812Z,88.1
2018-04-25T12:15:03.800Z,88.01
2018-04-25T12:16:03.536Z,86.57
2018-04-25T12:17:03.800Z,85.22
2018-04-25T12:18:03.801Z,85.71
2018-04-25T12:19:03.530Z,85.61
2018-04-25T12:20:03.795Z,84.26
2018-04-25T12:21:03.527Z,84.55
2018-04-25T12:22:03.784Z,83.4
2018-04-25T12:23:03.527Z,83.2
2018-04-25T12:24:03.791Z,82.15
2018-04-25T12:25:03.519Z,81.28
2018-04-25T12:26:03.524Z,80.13
2018-04-25T12:27:03.769Z,79.5
2018-04-25T12:28:03.769Z,79.21
2018-04-25T12:29:03.775Z,79.02
2018-04-25T12:30:03.764Z,77
2018-04-25T12:31:03.504Z,76.26
2018-04-25T12:32:03.761Z,75.98
2018-04-25T12:33:03.766Z,75.4
2018-04-25T12:34:03.508Z,73.8
2018-04-25T12:35:03.754Z,73.51
2018-04-25T12:36:03.498Z,70.95
2018-04-25T12:37:03.756Z,70.37
2018-04-25T12:38:03.747Z,69.64
2018-04-25T12:39:03.749Z,67.52
2018-04-25T12:40:03.767Z,67.03
2018-04-25T12:41:03.756Z,66.11
2018-04-25T12:42:03.752Z,65.72
2018-04-25T12:43:03.749Z,65.91
2018-04-25T12:44:03.749Z,65.53
2018-04-25T12:45:03.511Z,66.2
2018-04-25T12:46:03.747Z,66.2
2018-04-25T12:47:03.770Z,66.78
2018-04-25T12:48:03.771Z,66.59
2018-04-25T12:49:03.774Z,66.69
2018-04-25T12:50:03.486Z,66.88
2018-04-25T12:51:03.491Z,66.49
2018-04-25T12:52:03.496Z,66.97
2018-04-25T12:53:03.758Z,67.07
2018-04-25T12:54:03.788Z,67.33
2018-04-25T12:55:03.733Z,67.71